createdAt,value
2017-12-05T00:00:47.696Z,3.60
2017-12-05T00:03:15.805Z,3.60
2017-12-05T00:05:44.127Z,3.60
2017-12-05T00:08:12.482Z,3.70
2017-12-05T00:10:40.927Z,3.70
2017-12-05T00:13:09.362Z,3.70
2017-12-05T00:15:37.750Z,3.70
2017-12-05T00:18:06.108Z,3.70
2017-12-05T00:20:34.470Z,3.70
2017-12-05T00:23:02.809Z,3.70
2017-12-05T00:25:31.194Z,3.70
2017-12-05T00:28:00.311Z,3.70
2017-12-05T00:30:28.679Z,3.70
2017-12-05T00:32:57.020Z,3.70
2017-12-05T00:35:25.377Z,3.70
2017-12-05T00:37:53.717Z,3.70
2017-12-05T00:40:22.835Z,3.80
2017-12-05T00:42:51.176Z,3.70
2017-12-05T00:45:20.333Z,3.80
2017-12-05T00:47:48.644Z,3.80
2017-12-05T00:50:17.794Z,3.80
2017-12-05T00:52:46.116Z,3.80
2017-12-05T00:55:14.494Z,3.80
2017-12-05T00:57:43.610Z,3.80
2017-12-05T01:00:12.722Z,3.80
2017-12-05T01:02:41.060Z,3.80
2017-12-05T01:05:09.403Z,3.80
2017-12-05T01:07:37.787Z,3.80
2017-12-05T01:10:06.141Z,3.80
2017-12-05T01:12:34.487Z,3.80
2017-12-05T01:15:02.833Z,3.80
2017-12-05T01:17:31.167Z,3.80
2017-12-05T01:20:00.314Z,3.80
2017-12-05T01:22:28.633Z,3.80
2017-12-05T01:24:57.006Z,3.90
2017-12-05T01:27:25.344Z,3.90
2017-12-05T01:29:53.670Z,3.90
2017-12-05T01:32:22.804Z,3.90
2017-12-05T01:34:51.126Z,3.90
2017-12-05T01:37:19.539Z,3.90
2017-12-05T01:39:48.643Z,3.90
2017-12-05T01:42:17.049Z,3.90
2017-12-05T01:44:45.364Z,3.90
2017-12-05T01:47:13.719Z,3.80
2017-12-05T01:49:42.055Z,3.90
2017-12-05T01:52:11.653Z,3.80
2017-12-05T01:54:40.738Z,3.90
2017-12-05T01:57:09.106Z,3.90
2017-12-05T01:59:37.437Z,3.80
2017-12-05T02:02:05.822Z,3.90
2017-12-05T02:04:34.165Z,3.90
2017-12-05T02:07:02.556Z,3.90
2017-12-05T02:09:30.895Z,3.90
2017-12-05T02:11:59.259Z,3.90
2017-12-05T02:14:27.589Z,3.90
2017-12-05T02:16:55.972Z,3.80
2017-12-05T02:19:24.315Z,3.90
2017-12-05T02:21:52.666Z,3.90
2017-12-05T02:24:21.037Z,3.80
2017-12-05T02:26:49.419Z,3.80
2017-12-05T02:29:17.767Z,3.90
2017-12-05T02:31:46.098Z,3.80
2017-12-05T02:34:14.470Z,3.80
2017-12-05T02:36:42.795Z,3.80
2017-12-05T02:39:11.910Z,3.80
2017-12-05T02:41:40.244Z,3.80
2017-12-05T02:44:08.624Z,3.80
2017-12-05T02:46:37.031Z,3.80
2017-12-05T02:49:05.399Z,3.80
2017-12-05T02:51:33.747Z,3.80
2017-12-05T02:54:02.137Z,3.80
2017-12-05T02:56:30.458Z,3.80
2017-12-05T02:58:58.801Z,3.80
2017-12-05T03:01:27.187Z,3.90
2017-12-05T03:03:56.315Z,3.80
2017-12-05T03:06:24.681Z,3.80
2017-12-05T03:08:53.028Z,3.80
2017-12-05T03:11:21.396Z,3.80
2017-12-05T03:13:49.747Z,3.80
2017-12-05T03:16:18.217Z,3.90
2017-12-05T03:18:46.602Z,3.80
2017-12-05T03:21:14.983Z,3.90
2017-12-05T03:23:43.362Z,3.80
2017-12-05T03:26:11.792Z,3.80
2017-12-05T03:28:40.178Z,3.80
2017-12-05T03:31:08.494Z,3.80
2017-12-05T03:33:36.831Z,3.80
2017-12-05T03:36:05.174Z,3.80
2017-12-05T03:38:33.523Z,3.80
2017-12-05T03:41:01.855Z,3.90
2017-12-05T03:43:30.211Z,3.80
2017-12-05T03:45:58.533Z,3.90
2017-12-05T03:48:26.886Z,3.90
2017-12-05T03:50:55.205Z,3.80
2017-12-05T03:53:24.326Z,3.80
2017-12-05T03:55:52.687Z,3.80
2017-12-05T03:58:21.862Z,3.80
2017-12-05T04:00:50.283Z,3.80
2017-12-05T04:03:18.642Z,3.90
2017-12-05T04:05:47.737Z,3.80
2017-12-05T04:08:16.873Z,3.80
2017-12-05T04:10:45.207Z,3.80
2017-12-05T04:13:13.532Z,3.80
2017-12-05T04:15:41.881Z,3.80
2017-12-05T04:18:10.973Z,3.80
2017-12-05T04:20:40.137Z,3.90
2017-12-05T04:23:08.468Z,3.80
2017-12-05T04:25:36.853Z,3.80
2017-12-05T04:28:05.208Z,3.80
2017-12-05T04:30:34.340Z,3.80
2017-12-05T04:33:02.652Z,3.80
2017-12-05T04:35:31.038Z,3.80
2017-12-05T04:37:59.408Z,3.80
2017-12-05T04:40:27.761Z,3.90
2017-12-05T04:42:56.089Z,3.90
2017-12-05T04:45:24.453Z,3.80
2017-12-05T04:47:52.809Z,3.80
2017-12-05T04:50:21.155Z,3.80
2017-12-05T04:52:49.507Z,3.80
2017-12-05T04:55:18.630Z,3.70
2017-12-05T04:57:46.987Z,3.70
2017-12-05T05:00:16.081Z,3.80
2017-12-05T05:02:45.225Z,3.70
2017-12-05T05:05:13.562Z,3.70
2017-12-05T05:07:42.678Z,3.70
2017-12-05T05:10:10.989Z,3.70
2017-12-05T05:12:39.370Z,3.70
2017-12-05T05:15:07.716Z,3.70
2017-12-05T05:17:36.077Z,3.60
2017-12-05T05:20:05.256Z,3.60
2017-12-05T05:22:33.618Z,3.60
2017-12-05T05:25:02.737Z,3.60
2017-12-05T05:27:31.090Z,3.60
2017-12-05T05:29:59.428Z,3.70
2017-12-05T05:32:27.778Z,3.70
2017-12-05T05:34:56.891Z,3.60
2017-12-05T05:37:26.010Z,3.60
2017-12-05T05:39:54.354Z,3.60
2017-12-05T05:42:22.739Z,3.60
2017-12-05T05:44:51.838Z,3.60
2017-12-05T05:47:20.952Z,3.60
2017-12-05T05:49:49.285Z,3.60
2017-12-05T05:52:17.725Z,3.60
2017-12-05T05:54:46.075Z,3.60
2017-12-05T05:57:15.244Z,3.60
2017-12-05T05:59:43.582Z,3.60
2017-12-05T06:02:12.049Z,3.60
2017-12-05T06:04:40.421Z,3.60
2017-12-05T06:07:08.766Z,3.60
2017-12-05T06:09:37.130Z,3.60
2017-12-05T06:12:06.409Z,3.60
2017-12-05T06:14:34.757Z,3.60
2017-12-05T06:17:03.856Z,3.50
2017-12-05T06:19:32.962Z,3.50
2017-12-05T06:22:01.379Z,3.50
2017-12-05T06:24:29.733Z,3.50
2017-12-05T06:26:58.069Z,3.50
2017-12-05T06:29:26.429Z,3.50
2017-12-05T06:31:54.765Z,3.50
2017-12-05T06:34:23.115Z,3.50
2017-12-05T06:36:52.206Z,3.50
2017-12-05T06:39:20.554Z,3.40
2017-12-05T06:41:48.893Z,3.40
2017-12-05T06:44:17.294Z,3.50
2017-12-05T06:46:45.637Z,3.50
2017-12-05T06:49:14.742Z,3.50
2017-12-05T06:51:43.096Z,3.40
2017-12-05T06:54:12.209Z,3.50
2017-12-05T06:56:40.570Z,3.40
2017-12-05T06:59:09.675Z,3.50
2017-12-05T07:01:38.810Z,3.50
2017-12-05T07:04:07.186Z,3.50
2017-12-05T07:06:35.582Z,3.50
2017-12-05T07:09:03.934Z,3.50
2017-12-05T07:11:32.307Z,3.50
2017-12-05T07:14:00.654Z,3.40
2017-12-05T07:16:29.781Z,3.50
2017-12-05T07:18:58.125Z,3.50
2017-12-05T07:21:26.492Z,3.50
2017-12-05T07:23:54.845Z,3.50
2017-12-05T07:26:23.200Z,3.50
2017-12-05T07:28:51.541Z,3.50
2017-12-05T07:31:19.910Z,3.50
2017-12-05T07:33:48.345Z,3.50
2017-12-05T07:36:16.702Z,3.50
2017-12-05T07:38:45.812Z,3.50
2017-12-05T07:41:14.148Z,3.50
2017-12-05T07:43:42.526Z,3.40
2017-12-05T07:46:10.864Z,3.50
2017-12-05T07:48:39.222Z,3.50
2017-12-05T07:51:07.555Z,3.50
2017-12-05T07:53:35.938Z,3.60
2017-12-05T07:56:04.270Z,3.50
2017-12-05T07:58:33.387Z,3.50
2017-12-05T08:01:01.740Z,3.60
2017-12-05T08:03:30.118Z,3.50
2017-12-05T08:05:58.457Z,3.50
2017-12-05T08:08:26.819Z,3.50
2017-12-05T08:10:55.187Z,3.60
2017-12-05T08:13:23.553Z,3.60
2017-12-05T08:15:51.918Z,3.60
2017-12-05T08:18:21.016Z,3.60
2017-12-05T08:20:49.386Z,3.50
2017-12-05T08:23:17.764Z,3.60
2017-12-05T08:25:46.118Z,3.60
2017-12-05T08:28:15.247Z,3.60
2017-12-05T08:30:44.342Z,3.60
2017-12-05T08:33:12.716Z,3.60
2017-12-05T08:35:41.065Z,3.70
2017-12-05T08:38:09.420Z,3.70
2017-12-05T08:40:37.770Z,3.70
2017-12-05T08:43:06.116Z,3.70
2017-12-05T08:45:34.452Z,3.70
2017-12-05T08:48:02.813Z,3.70
2017-12-05T08:50:31.150Z,3.70
2017-12-05T08:53:00.286Z,3.70
2017-12-05T08:55:28.618Z,3.70
2017-12-05T08:57:56.987Z,3.70
2017-12-05T09:00:25.317Z,3.70
2017-12-05T09:02:53.687Z,3.70
2017-12-05T09:05:22.792Z,3.70
2017-12-05T09:07:51.330Z,3.70
2017-12-05T09:10:19.654Z,3.70
2017-12-05T09:12:48.006Z,3.70
2017-12-05T09:15:17.130Z,3.70
2017-12-05T09:17:45.494Z,3.70
2017-12-05T09:20:13.837Z,3.70
2017-12-05T09:22:42.189Z,3.70
2017-12-05T09:25:10.529Z,3.80
2017-12-05T09:27:39.653Z,3.80
2017-12-05T09:30:07.999Z,3.80
2017-12-05T09:32:37.143Z,3.90
2017-12-05T09:35:05.479Z,3.90
2017-12-05T09:37:34.578Z,4.00
2017-12-05T09:40:02.973Z,4.00
2017-12-05T09:42:31.338Z,4.10
2017-12-05T09:44:59.708Z,4.10
2017-12-05T09:47:28.863Z,4.20
2017-12-05T09:49:57.254Z,4.20
2017-12-05T09:52:25.594Z,4.30
2017-12-05T09:54:53.946Z,4.30
2017-12-05T09:57:23.061Z,4.40
2017-12-05T09:59:51.432Z,4.40
2017-12-05T10:02:19.870Z,4.50
2017-12-05T10:04:48.230Z,4.60
2017-12-05T10:07:16.589Z,4.80
2017-12-05T10:09:45.019Z,5.10
2017-12-05T10:12:13.381Z,5.40
2017-12-05T10:14:41.733Z,5.40
2017-12-05T10:17:10.079Z,5.40
2017-12-05T10:19:39.208Z,5.40
2017-12-05T10:22:07.535Z,5.30
2017-12-05T10:24:35.895Z,5.40
2017-12-05T10:27:04.230Z,5.50
2017-12-05T10:29:32.585Z,5.70
2017-12-05T10:32:01.689Z,5.60
2017-12-05T10:34:30.814Z,5.50
2017-12-05T10:36:59.149Z,5.50
2017-12-05T10:39:28.294Z,5.50
2017-12-05T10:41:56.632Z,5.50
2017-12-05T10:44:24.995Z,5.50
2017-12-05T10:46:53.353Z,5.60
2017-12-05T10:49:21.694Z,5.50
2017-12-05T10:51:50.885Z,5.50
2017-12-05T10:54:19.266Z,5.50
2017-12-05T10:56:47.650Z,5.60
2017-12-05T10:59:15.990Z,5.70
2017-12-05T11:01:44.339Z,5.90
2017-12-05T11:04:12.672Z,5.90
2017-12-05T11:06:41.001Z,5.80
2017-12-05T11:09:09.330Z,5.60
2017-12-05T11:11:37.679Z,5.70
2017-12-05T11:14:06.022Z,6.00
2017-12-05T11:16:34.351Z,6.30
2017-12-05T11:19:02.656Z,6.40
2017-12-05T11:21:31.753Z,6.60
2017-12-05T11:24:00.834Z,7.00
2017-12-05T11:26:29.180Z,6.90
2017-12-05T11:28:57.490Z,6.80
2017-12-05T11:31:25.836Z,6.70
2017-12-05T11:33:54.165Z,6.70
2017-12-05T11:36:23.236Z,6.70
2017-12-05T11:38:51.575Z,6.70
2017-12-05T11:41:19.897Z,6.70
2017-12-05T11:43:48.229Z,7.10
2017-12-05T11:46:16.540Z,7.10
2017-12-05T11:48:44.866Z,6.90
2017-12-05T11:51:13.186Z,6.70
2017-12-05T11:53:41.513Z,6.80
2017-12-05T11:56:10.597Z,7.00
2017-12-05T11:58:38.917Z,7.00
2017-12-05T12:01:07.224Z,6.90
2017-12-05T12:03:35.554Z,6.70
2017-12-05T12:06:04.618Z,6.40
2017-12-05T12:08:33.718Z,6.30
2017-12-05T12:11:02.019Z,6.30
2017-12-05T12:13:31.109Z,6.50
2017-12-05T12:16:00.176Z,6.50
2017-12-05T12:18:28.505Z,6.40
2017-12-05T12:20:56.813Z,6.40
2017-12-05T12:23:25.112Z,6.40
2017-12-05T12:25:53.434Z,6.30
2017-12-05T12:28:21.742Z,6.30
2017-12-05T12:30:50.069Z,6.20
2017-12-05T12:33:18.369Z,6.10
2017-12-05T12:35:46.689Z,6.10
2017-12-05T12:38:15.002Z,6.10
2017-12-05T12:40:43.345Z,6.20
2017-12-05T12:43:11.657Z,6.20
2017-12-05T12:45:40.756Z,6.20
2017-12-05T12:48:09.832Z,6.20
2017-12-05T12:50:38.173Z,6.20
2017-12-05T12:53:07.256Z,6.30
2017-12-05T12:55:35.600Z,6.30
2017-12-05T12:58:03.908Z,6.30
2017-12-05T13:00:32.215Z,6.30
2017-12-05T13:03:00.557Z,6.20
2017-12-05T13:05:29.642Z,6.30
2017-12-05T13:07:58.745Z,6.30
2017-12-05T13:10:27.829Z,6.20
2017-12-05T13:12:56.156Z,6.10
2017-12-05T13:15:24.470Z,6.10
2017-12-05T13:17:52.797Z,6.10
2017-12-05T13:20:21.109Z,6.10
2017-12-05T13:22:49.433Z,6.20
2017-12-05T13:25:18.509Z,6.20
2017-12-05T13:27:46.843Z,6.20
2017-12-05T13:30:15.154Z,6.20
2017-12-05T13:32:43.497Z,6.20
2017-12-05T13:35:11.811Z,6.10
2017-12-05T13:37:40.130Z,6.20
2017-12-05T13:40:08.474Z,6.30
2017-12-05T13:42:38.521Z,6.30
2017-12-05T13:45:07.612Z,6.40
2017-12-05T13:47:40.077Z,6.30
2017-12-05T13:50:08.425Z,6.30
2017-12-05T13:52:36.803Z,6.10
2017-12-05T13:55:05.124Z,6.10
2017-12-05T13:57:34.196Z,6.00
2017-12-05T14:00:02.518Z,6.00
2017-12-05T14:02:30.830Z,6.00
2017-12-05T14:04:59.163Z,6.00
2017-12-05T14:07:28.263Z,6.10
2017-12-05T14:09:56.626Z,6.00
2017-12-05T14:12:25.709Z,6.00
2017-12-05T14:14:54.031Z,6.00
2017-12-05T14:17:23.106Z,6.00
2017-12-05T14:19:52.202Z,6.00
2017-12-05T14:22:21.304Z,6.00
2017-12-05T14:24:49.630Z,6.00
2017-12-05T14:27:17.989Z,6.00
2017-12-05T14:29:46.320Z,6.00
2017-12-05T14:32:14.650Z,5.90
2017-12-05T14:34:42.970Z,5.90
2017-12-05T14:37:11.308Z,5.80
2017-12-05T14:39:39.629Z,5.80
2017-12-05T14:42:07.953Z,5.70
2017-12-05T14:44:36.304Z,5.70
2017-12-05T14:47:05.395Z,5.70
2017-12-05T14:49:34.472Z,5.60
2017-12-05T14:52:02.797Z,5.60
2017-12-05T14:54:31.144Z,5.70
2017-12-05T14:56:59.453Z,5.70
2017-12-05T14:59:27.807Z,5.60
2017-12-05T15:01:56.140Z,5.70
2017-12-05T15:04:24.473Z,5.70
2017-12-05T15:06:53.562Z,5.60
2017-12-05T15:09:23.844Z,5.50
2017-12-05T15:11:52.156Z,5.60
2017-12-05T15:14:20.495Z,5.70
2017-12-05T15:16:48.821Z,5.60
2017-12-05T15:19:17.186Z,5.60
2017-12-05T15:21:45.507Z,5.50
2017-12-05T15:24:13.849Z,5.50
2017-12-05T15:26:42.938Z,5.60
2017-12-05T15:29:12.056Z,5.50
2017-12-05T15:31:41.302Z,5.50
2017-12-05T15:34:09.659Z,5.60
2017-12-05T15:36:38.011Z,5.50
2017-12-05T15:39:07.113Z,5.40
2017-12-05T15:41:36.187Z,5.40
2017-12-05T15:44:04.495Z,5.40
2017-12-05T15:46:33.599Z,5.30
2017-12-05T15:49:01.930Z,5.30
2017-12-05T15:51:30.269Z,5.30
2017-12-05T15:53:58.609Z,5.30
2017-12-05T15:56:27.712Z,5.30
2017-12-05T15:58:56.797Z,5.30
2017-12-05T16:01:25.137Z,5.30
2017-12-05T16:03:53.473Z,5.20
2017-12-05T16:06:22.569Z,5.20
2017-12-05T16:08:51.648Z,5.30
2017-12-05T16:11:19.969Z,5.20
2017-12-05T16:13:48.329Z,5.20
2017-12-05T16:16:16.638Z,5.20
2017-12-05T16:18:44.986Z,5.20
2017-12-05T16:21:13.302Z,5.10
2017-12-05T16:23:41.756Z,5.10
2017-12-05T16:26:10.077Z,5.10
2017-12-05T16:28:38.424Z,5.20
2017-12-05T16:31:06.756Z,5.10
2017-12-05T16:33:35.094Z,5.10
2017-12-05T16:36:03.400Z,5.10
2017-12-05T16:38:31.733Z,5.10
2017-12-05T16:41:00.122Z,5.10
2017-12-05T16:43:28.442Z,5.10
2017-12-05T16:45:56.759Z,5.10
2017-12-05T16:48:25.102Z,5.10
2017-12-05T16:50:54.196Z,5.10
2017-12-05T16:53:22.542Z,5.10
2017-12-05T16:55:50.852Z,5.10
2017-12-05T16:58:19.189Z,5.10
2017-12-05T17:00:47.514Z,5.00
2017-12-05T17:03:16.665Z,5.00
2017-12-05T17:05:45.009Z,5.00
2017-12-05T17:08:14.101Z,5.00
2017-12-05T17:10:43.200Z,5.00
2017-12-05T17:13:11.530Z,5.00
2017-12-05T17:15:39.868Z,5.00
2017-12-05T17:18:08.193Z,5.00
2017-12-05T17:20:36.534Z,5.00
2017-12-05T17:23:04.856Z,5.00
2017-12-05T17:25:33.201Z,5.00
2017-12-05T17:28:01.529Z,4.90
2017-12-05T17:30:29.865Z,5.00
2017-12-05T17:32:58.182Z,5.00
2017-12-05T17:35:26.525Z,5.00
2017-12-05T17:37:54.845Z,5.00
2017-12-05T17:40:23.963Z,5.00
2017-12-05T17:42:53.044Z,5.00
2017-12-05T17:45:22.149Z,5.00
2017-12-05T17:47:51.229Z,5.10
2017-12-05T17:50:19.583Z,5.00
2017-12-05T17:52:47.897Z,5.00
2017-12-05T17:55:17.021Z,5.00
2017-12-05T17:57:45.328Z,5.00
2017-12-05T18:00:13.661Z,5.00
2017-12-05T18:02:42.005Z,5.00
2017-12-05T18:05:10.330Z,5.00
2017-12-05T18:07:38.708Z,4.90
2017-12-05T18:10:07.824Z,5.00
2017-12-05T18:12:36.168Z,5.00
2017-12-05T18:15:04.508Z,5.00
2017-12-05T18:17:32.856Z,5.00
2017-12-05T18:20:01.188Z,5.00
2017-12-05T18:22:30.310Z,5.00
2017-12-05T18:25:01.965Z,4.90
2017-12-05T18:27:30.309Z,4.90
2017-12-05T18:29:58.646Z,4.90
2017-12-05T18:32:26.999Z,5.00
2017-12-05T18:34:56.104Z,4.90
2017-12-05T18:37:24.457Z,5.00
2017-12-05T18:39:53.549Z,4.90
2017-12-05T18:42:21.922Z,4.90
2017-12-05T18:44:50.254Z,4.90
2017-12-05T18:47:18.613Z,4.90
2017-12-05T18:49:47.698Z,4.90
2017-12-05T18:52:16.810Z,4.90
2017-12-05T18:54:45.147Z,4.90
2017-12-05T18:57:13.498Z,4.90
2017-12-05T18:59:41.832Z,4.90
2017-12-05T19:02:10.974Z,4.80
2017-12-05T19:04:39.345Z,4.90
2017-12-05T19:07:07.681Z,4.90
2017-12-05T19:09:36.801Z,4.90
2017-12-05T19:12:05.885Z,4.80
2017-12-05T19:14:34.234Z,4.80
2017-12-05T19:17:02.560Z,4.80
2017-12-05T19:19:30.911Z,4.80
2017-12-05T19:22:00.010Z,4.80
2017-12-05T19:24:29.141Z,4.80
2017-12-05T19:26:57.474Z,4.80
2017-12-05T19:29:25.849Z,4.70
2017-12-05T19:31:54.185Z,4.80
2017-12-05T19:34:22.533Z,4.80
2017-12-05T19:36:50.861Z,4.80
2017-12-05T19:39:19.234Z,4.80
2017-12-05T19:41:47.565Z,4.80
2017-12-05T19:44:16.689Z,4.80
2017-12-05T19:46:45.025Z,4.80
2017-12-05T19:49:13.375Z,4.80
2017-12-05T19:51:41.717Z,4.80
2017-12-05T19:54:10.049Z,4.70
2017-12-05T19:56:38.401Z,4.80
2017-12-05T19:59:06.724Z,4.70
2017-12-05T20:01:35.847Z,4.80
2017-12-05T20:04:04.160Z,4.80
2017-12-05T20:06:32.517Z,4.80
2017-12-05T20:09:00.853Z,4.70
2017-12-05T20:11:29.976Z,4.70
2017-12-05T20:13:59.048Z,4.80
2017-12-05T20:16:27.395Z,4.70
2017-12-05T20:18:55.717Z,4.80
2017-12-05T20:21:24.850Z,4.70
2017-12-05T20:23:53.276Z,4.70
2017-12-05T20:26:21.684Z,4.70
2017-12-05T20:28:50.034Z,4.70
2017-12-05T20:31:18.387Z,4.70
2017-12-05T20:33:46.710Z,4.70
2017-12-05T20:36:15.830Z,4.70
2017-12-05T20:38:44.149Z,4.70
2017-12-05T20:41:12.504Z,4.70
2017-12-05T20:43:40.835Z,4.70
2017-12-05T20:46:09.958Z,4.70
2017-12-05T20:48:38.035Z,4.70
2017-12-05T20:51:06.161Z,4.70
2017-12-05T20:53:34.229Z,4.80
2017-12-05T20:56:02.305Z,4.70
2017-12-05T20:58:30.416Z,4.70
2017-12-05T21:00:58.498Z,4.70
2017-12-05T21:03:26.589Z,4.70
2017-12-05T21:05:55.436Z,4.70
2017-12-05T21:08:23.542Z,4.70
2017-12-05T21:10:51.609Z,4.80
2017-12-05T21:13:19.713Z,4.70
2017-12-05T21:15:48.548Z,4.70
2017-12-05T21:18:17.505Z,4.70
2017-12-05T21:20:46.337Z,4.70
2017-12-05T21:23:14.429Z,4.70
2017-12-05T21:25:42.517Z,4.70
2017-12-05T21:28:10.610Z,4.70
2017-12-05T21:30:39.456Z,4.70
2017-12-05T21:33:07.602Z,4.70
2017-12-05T21:35:35.678Z,4.70
2017-12-05T21:38:03.768Z,4.70
2017-12-05T21:40:31.851Z,4.70
2017-12-05T21:42:59.943Z,4.70
2017-12-05T21:45:28.017Z,4.70
2017-12-05T21:47:56.106Z,4.70
2017-12-05T21:50:24.942Z,4.70
2017-12-05T21:52:53.053Z,4.70
2017-12-05T21:55:21.127Z,4.70
2017-12-05T21:57:49.188Z,4.70
2017-12-05T22:00:17.280Z,4.70
2017-12-05T22:02:46.116Z,4.70
2017-12-05T22:05:14.211Z,4.70
2017-12-05T22:07:42.303Z,4.70
2017-12-05T22:10:10.645Z,4.70
2017-12-05T22:12:38.961Z,4.70
2017-12-05T22:15:07.314Z,4.70
2017-12-05T22:17:36.385Z,4.70
2017-12-05T22:20:04.750Z,4.70
2017-12-05T22:22:33.082Z,4.70
2017-12-05T22:25:01.386Z,4.60
2017-12-05T22:27:29.725Z,4.60
2017-12-05T22:29:58.804Z,4.60
2017-12-05T22:32:27.133Z,4.60
2017-12-05T22:34:55.453Z,4.60
2017-12-05T22:37:23.780Z,4.60
2017-12-05T22:39:52.105Z,4.60
2017-12-05T22:42:20.468Z,4.60
2017-12-05T22:44:48.777Z,4.60
2017-12-05T22:47:17.109Z,4.60
2017-12-05T22:49:45.424Z,4.60
2017-12-05T22:52:13.765Z,4.60
2017-12-05T22:54:42.078Z,4.60
2017-12-05T22:57:10.405Z,4.60
2017-12-05T22:59:38.717Z,4.70
2017-12-05T23:02:07.044Z,4.70
2017-12-05T23:04:36.130Z,4.70
2017-12-05T23:07:04.469Z,4.70
2017-12-05T23:09:32.793Z,4.60
2017-12-05T23:12:01.900Z,4.70
2017-12-05T23:14:30.985Z,4.70
2017-12-05T23:17:00.089Z,4.60
2017-12-05T23:19:28.417Z,4.60
2017-12-05T23:21:56.738Z,4.70
2017-12-05T23:24:25.069Z,4.70
2017-12-05T23:26:53.388Z,4.60
2017-12-05T23:29:21.725Z,4.60
2017-12-05T23:31:50.037Z,4.60
2017-12-05T23:34:18.378Z,4.60
2017-12-05T23:36:46.692Z,4.60
2017-12-05T23:39:15.024Z,4.60
2017-12-05T23:41:43.340Z,4.60
2017-12-05T23:44:11.676Z,4.60
2017-12-05T23:46:40.000Z,4.60
2017-12-05T23:49:08.357Z,4.60
2017-12-05T23:51:36.672Z,4.70
2017-12-05T23:54:04.999Z,4.60
2017-12-05T23:56:33.345Z,4.60
2017-12-05T23:59:02.428Z,4.60
